Bethune, Colorado
Current Conditions -  °F | °C
As of 2:26 AM on Thursday 18 Dec 2014 (Local Time) from KITR Reporting Station
Overcast Overcast  
Wind Chill: -10°   Ceiling: 200
Heat Index: -5°   Visibility: 7mi
Dew Point: -7°   Wind: 7mph
Humidity: 88%   Direction: 230°SW
Pressure: 30.01"   Gusts: NA
Location:  39.3°N, 102.42°W
Report Text: KITR 180926Z AUTO 23006KT 7SM OVC002 M05/M07 A3001 RMK AO2 CIG 002V005 I1000 T10501067
Loading
Personal Weather Stations






























Interactive Weather Map New forecast layout! Learn more

10-Day Weather Forecast

Advertisements
Track Severe Weather on mobile